sensor_id;sensor_type;location;lat;lon;timestamp;pressure;altitude;pressure_sealevel;temperature;humidity
1616;BME280;801;47.982;7.810;2023-05-09T00:02:14;98903.97;;;16.68;100.00
1616;BME280;801;47.982;7.810;2023-05-09T00:04:41;98891.00;;;16.65;100.00
1616;BME280;801;47.982;7.810;2023-05-09T00:07:09;98893.88;;;16.73;100.00
1616;BME280;801;47.982;7.810;2023-05-09T00:09:35;98890.88;;;16.75;100.00
1616;BME280;801;47.982;7.810;2023-05-09T00:12:02;98887.56;;;16.78;100.00
1616;BME280;801;47.982;7.810;2023-05-09T00:14:29;98895.97;;;16.82;100.00
1616;BME280;801;47.982;7.810;2023-05-09T00:16:57;98882.22;;;16.92;100.00
1616;BME280;801;47.982;7.810;2023-05-09T00:19:24;98878.00;;;16.86;100.00
1616;BME280;801;47.982;7.810;2023-05-09T00:21:50;98874.78;;;16.78;100.00
1616;BME280;801;47.982;7.810;2023-05-09T00:24:18;98874.41;;;16.90;100.00
1616;BME280;801;47.982;7.810;2023-05-09T00:26:45;98873.00;;;16.93;100.00
1616;BME280;801;47.982;7.810;2023-05-09T00:29:11;98869.97;;;16.94;100.00
1616;BME280;801;47.982;7.810;2023-05-09T00:31:38;98863.81;;;16.89;100.00
1616;BME280;801;47.982;7.810;2023-05-09T00:34:04;98867.72;;;16.83;100.00
1616;BME280;801;47.982;7.810;2023-05-09T00:36:30;98855.78;;;16.84;100.00
1616;BME280;801;47.982;7.810;2023-05-09T00:38:57;98853.91;;;16.79;100.00
1616;BME280;801;47.982;7.810;2023-05-09T00:41:25;98849.84;;;16.82;100.00
1616;BME280;801;47.982;7.810;2023-05-09T00:43:51;98850.91;;;16.80;100.00
1616;BME280;801;47.982;7.810;2023-05-09T00:46:18;98846.59;;;16.79;100.00
1616;BME280;801;47.982;7.810;2023-05-09T00:48:44;98844.00;;;16.69;100.00
1616;BME280;801;47.982;7.810;2023-05-09T00:51:11;98852.81;;;16.61;100.00
1616;BME280;801;47.982;7.810;2023-05-09T00:53:37;98843.19;;;16.69;100.00
1616;BME280;801;47.982;7.810;2023-05-09T00:56:04;98843.56;;;16.62;100.00
1616;BME280;801;47.982;7.810;2023-05-09T00:58:33;98848.25;;;16.56;100.00
1616;BME280;801;47.982;7.810;2023-05-09T01:00:59;98832.72;;;16.62;100.00
1616;BME280;801;47.982;7.810;2023-05-09T01:03:28;98839.47;;;16.65;100.00
1616;BME280;801;47.982;7.810;2023-05-09T01:05:59;98841.13;;;16.60;100.00
1616;BME280;801;47.982;7.810;2023-05-09T01:08:35;98837.34;;;16.62;100.00
1616;BME280;801;47.982;7.810;2023-05-09T01:11:08;98834.03;;;16.65;100.00
1616;BME280;801;47.982;7.810;2023-05-09T01:13:43;98840.78;;;16.67;100.00
1616;BME280;801;47.982;7.810;2023-05-09T01:16:19;98839.53;;;16.59;100.00
1616;BME280;801;47.982;7.810;2023-05-09T01:18:54;98825.53;;;16.52;100.00
1616;BME280;801;47.982;7.810;2023-05-09T01:21:25;98833.53;;;16.44;100.00
1616;BME280;801;47.982;7.810;2023-05-09T01:27:20;98823.19;;;16.46;100.00
1616;BME280;801;47.982;7.810;2023-05-09T01:29:50;98821.66;;;16.39;100.00
1616;BME280;801;47.982;7.810;2023-05-09T01:32:21;98820.03;;;16.38;100.00
1616;BME280;801;47.982;7.810;2023-05-09T01:34:51;98820.19;;;16.28;100.00
1616;BME280;801;47.982;7.810;2023-05-09T01:37:22;98822.28;;;16.31;100.00
1616;BME280;801;47.982;7.810;2023-05-09T01:39:52;98825.09;;;16.26;100.00
1616;BME280;801;47.982;7.810;2023-05-09T01:42:20;98810.72;;;16.26;100.00
1616;BME280;801;47.982;7.810;2023-05-09T01:44:49;98814.00;;;16.23;100.00
1616;BME280;801;47.982;7.810;2023-05-09T01:47:17;98811.38;;;16.17;100.00
1616;BME280;801;47.982;7.810;2023-05-09T01:49:46;98807.41;;;16.10;100.00
1616;BME280;801;47.982;7.810;2023-05-09T01:52:15;98805.00;;;16.08;100.00
1616;BME280;801;47.982;7.810;2023-05-09T01:54:44;98786.81;;;15.90;100.00
1616;BME280;801;47.982;7.810;2023-05-09T01:57:11;98794.94;;;15.90;100.00
1616;BME280;801;47.982;7.810;2023-05-09T01:59:41;98787.59;;;15.90;100.00
1616;BME280;801;47.982;7.810;2023-05-09T02:02:10;98785.84;;;16.00;100.00
1616;BME280;801;47.982;7.810;2023-05-09T02:04:37;98781.31;;;15.95;100.00
1616;BME280;801;47.982;7.810;2023-05-09T02:07:07;98786.50;;;15.91;100.00
1616;BME280;801;47.982;7.810;2023-05-09T02:09:34;98777.84;;;15.89;100.00
1616;BME280;801;47.982;7.810;2023-05-09T02:12:01;98787.72;;;15.80;100.00
1616;BME280;801;47.982;7.810;2023-05-09T02:14:28;98780.63;;;15.84;100.00
1616;BME280;801;47.982;7.810;2023-05-09T02:16:56;98778.78;;;15.80;100.00
1616;BME280;801;47.982;7.810;2023-05-09T02:19:23;98774.41;;;15.84;100.00
1616;BME280;801;47.982;7.810;2023-05-09T02:21:50;98778.44;;;15.86;100.00
1616;BME280;801;47.982;7.810;2023-05-09T02:24:17;98776.06;;;15.80;100.00
1616;BME280;801;47.982;7.810;2023-05-09T02:26:43;98773.09;;;15.81;100.00
1616;BME280;801;47.982;7.810;2023-05-09T02:29:10;98774.41;;;15.84;100.00
1616;BME280;801;47.982;7.810;2023-05-09T02:31:39;98775.03;;;15.75;100.00
1616;BME280;801;47.982;7.810;2023-05-09T02:34:07;98769.41;;;15.72;100.00
1616;BME280;801;47.982;7.810;2023-05-09T02:36:37;98770.53;;;15.66;100.00
1616;BME280;801;47.982;7.810;2023-05-09T02:39:03;98768.28;;;15.49;100.00
1616;BME280;801;47.982;7.810;2023-05-09T02:41:30;98774.50;;;15.49;100.00
1616;BME280;801;47.982;7.810;2023-05-09T02:43:56;98766.22;;;15.41;100.00
1616;BME280;801;47.982;7.810;2023-05-09T02:46:23;98771.31;;;15.42;100.00
1616;BME280;801;47.982;7.810;2023-05-09T02:48:49;98791.31;;;15.46;100.00
1616;BME280;801;47.982;7.810;2023-05-09T02:51:16;98778.31;;;15.48;100.00
1616;BME280;801;47.982;7.810;2023-05-09T02:53:44;98782.34;;;15.51;100.00
1616;BME280;801;47.982;7.810;2023-05-09T02:56:11;98777.44;;;15.53;100.00
1616;BME280;801;47.982;7.810;2023-05-09T02:58:37;98775.53;;;15.53;100.00
1616;BME280;801;47.982;7.810;2023-05-09T03:01:04;98768.00;;;15.50;100.00
1616;BME280;801;47.982;7.810;2023-05-09T03:03:30;98764.25;;;15.46;100.00
1616;BME280;801;47.982;7.810;2023-05-09T03:05:58;98767.22;;;15.45;100.00
1616;BME280;801;47.982;7.810;2023-05-09T03:08:24;98772.88;;;15.48;100.00
1616;BME280;801;47.982;7.810;2023-05-09T03:10:52;98773.94;;;15.52;100.00
1616;BME280;801;47.982;7.810;2023-05-09T03:13:19;98767.47;;;15.48;100.00
1616;BME280;801;47.982;7.810;2023-05-09T03:15:45;98755.91;;;15.43;100.00
1616;BME280;801;47.982;7.810;2023-05-09T03:18:11;98765.22;;;15.31;100.00
1616;BME280;801;47.982;7.810;2023-05-09T03:20:38;98765.00;;;15.28;100.00
1616;BME280;801;47.982;7.810;2023-05-09T03:23:04;98762.75;;;15.35;100.00
1616;BME280;801;47.982;7.810;2023-05-09T03:25:31;98756.28;;;15.31;100.00
1616;BME280;801;47.982;7.810;2023-05-09T03:27:59;98750.41;;;15.24;100.00
1616;BME280;801;47.982;7.810;2023-05-09T03:30:25;98749.38;;;15.20;100.00
1616;BME280;801;47.982;7.810;2023-05-09T03:32:52;98752.72;;;15.11;100.00
1616;BME280;801;47.982;7.810;2023-05-09T03:35:18;98753.84;;;15.05;100.00
1616;BME280;801;47.982;7.810;2023-05-09T03:37:45;98753.00;;;15.10;100.00
1616;BME280;801;47.982;7.810;2023-05-09T03:40:11;98749.50;;;15.04;100.00
1616;BME280;801;47.982;7.810;2023-05-09T03:42:38;98747.91;;;15.03;100.00
1616;BME280;801;47.982;7.810;2023-05-09T03:45:07;98748.47;;;15.00;100.00
1616;BME280;801;47.982;7.810;2023-05-09T03:47:34;98742.22;;;15.05;100.00
1616;BME280;801;47.982;7.810;2023-05-09T03:50:00;98743.56;;;15.07;100.00
1616;BME280;801;47.982;7.810;2023-05-09T03:52:28;98749.25;;;15.06;100.00
1616;BME280;801;47.982;7.810;2023-05-09T03:54:54;98741.66;;;15.08;100.00
1616;BME280;801;47.982;7.810;2023-05-09T03:57:21;98737.84;;;15.09;100.00
1616;BME280;801;47.982;7.810;2023-05-09T03:59:47;98745.63;;;15.15;100.00
1616;BME280;801;47.982;7.810;2023-05-09T04:02:15;98745.91;;;15.14;100.00
1616;BME280;801;47.982;7.810;2023-05-09T04:04:42;98755.91;;;15.13;100.00
1616;BME280;801;47.982;7.810;2023-05-09T04:07:09;98756.69;;;15.19;100.00
1616;BME280;801;47.982;7.810;2023-05-09T04:09:35;98749.16;;;15.16;100.00
1616;BME280;801;47.982;7.810;2023-05-09T04:12:02;98750.28;;;15.10;100.00
1616;BME280;801;47.982;7.810;2023-05-09T04:14:28;98749.44;;;15.14;100.00
1616;BME280;801;47.982;7.810;2023-05-09T04:16:55;98751.56;;;15.18;100.00
1616;BME280;801;47.982;7.810;2023-05-09T04:19:23;98746.03;;;15.28;100.00
1616;BME280;801;47.982;7.810;2023-05-09T04:21:49;98755.72;;;15.34;100.00
1616;BME280;801;47.982;7.810;2023-05-09T04:24:16;98744.59;;;15.35;100.00
1616;BME280;801;47.982;7.810;2023-05-09T04:26:42;98747.28;;;15.35;100.00
1616;BME280;801;47.982;7.810;2023-05-09T04:29:10;98747.59;;;15.34;100.00
1616;BME280;801;47.982;7.810;2023-05-09T04:31:36;98744.31;;;15.37;100.00
1616;BME280;801;47.982;7.810;2023-05-09T04:34:03;98741.31;;;15.39;100.00
1616;BME280;801;47.982;7.810;2023-05-09T04:36:31;98747.81;;;15.38;100.00
1616;BME280;801;47.982;7.810;2023-05-09T04:38:58;98741.59;;;15.37;100.00
1616;BME280;801;47.982;7.810;2023-05-09T04:41:24;98736.72;;;15.39;100.00
1616;BME280;801;47.982;7.810;2023-05-09T04:43:51;98737.06;;;15.32;100.00
1616;BME280;801;47.982;7.810;2023-05-09T04:46:18;98741.31;;;15.39;100.00
1616;BME280;801;47.982;7.810;2023-05-09T04:48:44;98731.75;;;15.46;100.00
1616;BME280;801;47.982;7.810;2023-05-09T04:51:11;98732.53;;;15.47;100.00
1616;BME280;801;47.982;7.810;2023-05-09T04:53:39;98741.72;;;15.51;100.00
1616;BME280;801;47.982;7.810;2023-05-09T04:56:05;98741.63;;;15.56;100.00
1616;BME280;801;47.982;7.810;2023-05-09T04:58:32;98740.84;;;15.55;100.00
1616;BME280;801;47.982;7.810;2023-05-09T05:00:58;98736.00;;;15.52;100.00
1616;BME280;801;47.982;7.810;2023-05-09T05:03:25;98729.03;;;15.46;100.00
1616;BME280;801;47.982;7.810;2023-05-09T05:05:51;98741.38;;;15.57;100.00
1616;BME280;801;47.982;7.810;2023-05-09T05:08:18;98742.06;;;15.68;100.00
1616;BME280;801;47.982;7.810;2023-05-09T05:10:46;98734.50;;;15.65;100.00
1616;BME280;801;47.982;7.810;2023-05-09T05:13:13;98735.88;;;15.63;100.00
1616;BME280;801;47.982;7.810;2023-05-09T05:15:39;98741.78;;;15.70;100.00
1616;BME280;801;47.982;7.810;2023-05-09T05:18:06;98747.06;;;15.80;100.00
1616;BME280;801;47.982;7.810;2023-05-09T05:20:33;98741.66;;;15.80;100.00
1616;BME280;801;47.982;7.810;2023-05-09T05:23:00;98748.00;;;15.94;100.00
1616;BME280;801;47.982;7.810;2023-05-09T05:25:26;98731.50;;;15.91;100.00
1616;BME280;801;47.982;7.810;2023-05-09T05:27:54;98733.31;;;15.95;100.00
1616;BME280;801;47.982;7.810;2023-05-09T05:30:20;98723.66;;;15.89;100.00
1616;BME280;801;47.982;7.810;2023-05-09T05:32:47;98718.69;;;15.96;100.00
1616;BME280;801;47.982;7.810;2023-05-09T05:35:13;98712.69;;;16.00;100.00
1616;BME280;801;47.982;7.810;2023-05-09T05:37:40;98720.59;;;16.15;100.00
1616;BME280;801;47.982;7.810;2023-05-09T05:40:08;98722.41;;;16.19;100.00
1616;BME280;801;47.982;7.810;2023-05-09T05:42:35;98721.31;;;16.21;100.00
1616;BME280;801;47.982;7.810;2023-05-09T05:45:03;98719.94;;;16.23;100.00
1616;BME280;801;47.982;7.810;2023-05-09T05:47:30;98712.22;;;16.30;100.00
1616;BME280;801;47.982;7.810;2023-05-09T05:49:57;98720.03;;;16.32;100.00
1616;BME280;801;47.982;7.810;2023-05-09T05:52:24;98716.91;;;16.44;100.00
1616;BME280;801;47.982;7.810;2023-05-09T05:54:51;98721.13;;;16.50;100.00
1616;BME280;801;47.982;7.810;2023-05-09T05:57:18;98718.34;;;16.55;100.00
1616;BME280;801;47.982;7.810;2023-05-09T05:59:45;98709.69;;;16.53;100.00
1616;BME280;801;47.982;7.810;2023-05-09T06:02:13;98708.06;;;16.52;100.00
1616;BME280;801;47.982;7.810;2023-05-09T06:04:40;98708.00;;;16.57;100.00
1616;BME280;801;47.982;7.810;2023-05-09T06:07:06;98701.31;;;16.68;100.00
1616;BME280;801;47.982;7.810;2023-05-09T06:09:33;98702.88;;;16.55;100.00
1616;BME280;801;47.982;7.810;2023-05-09T06:11:59;98706.50;;;16.65;100.00
1616;BME280;801;47.982;7.810;2023-05-09T06:14:26;98699.69;;;16.67;100.00
1616;BME280;801;47.982;7.810;2023-05-09T06:16:53;98699.50;;;16.77;100.00
1616;BME280;801;47.982;7.810;2023-05-09T06:19:21;98698.25;;;16.89;100.00
1616;BME280;801;47.982;7.810;2023-05-09T06:21:47;98697.59;;;16.97;100.00
1616;BME280;801;47.982;7.810;2023-05-09T06:24:14;98699.59;;;17.05;100.00
1616;BME280;801;47.982;7.810;2023-05-09T06:26:40;98695.78;;;17.20;100.00
1616;BME280;801;47.982;7.810;2023-05-09T06:29:07;98695.56;;;17.30;100.00
1616;BME280;801;47.982;7.810;2023-05-09T06:31:34;98690.97;;;17.31;100.00
1616;BME280;801;47.982;7.810;2023-05-09T06:34:02;98689.16;;;17.40;100.00
1616;BME280;801;47.982;7.810;2023-05-09T06:36:30;98682.69;;;17.50;100.00
1616;BME280;801;47.982;7.810;2023-05-09T06:38:57;98675.63;;;17.62;100.00
1616;BME280;801;47.982;7.810;2023-05-09T06:41:24;98680.28;;;17.62;100.00
1616;BME280;801;47.982;7.810;2023-05-09T06:43:51;98668.19;;;17.54;100.00
1616;BME280;801;47.982;7.810;2023-05-09T06:46:17;98673.91;;;17.67;100.00
1616;BME280;801;47.982;7.810;2023-05-09T06:48:44;98660.09;;;17.77;100.00
1616;BME280;801;47.982;7.810;2023-05-09T06:51:10;98660.72;;;17.74;100.00
1616;BME280;801;47.982;7.810;2023-05-09T06:53:38;98664.41;;;17.92;100.00
1616;BME280;801;47.982;7.810;2023-05-09T06:56:05;98652.03;;;17.86;100.00
1616;BME280;801;47.982;7.810;2023-05-09T06:58:32;98651.81;;;17.96;100.00
1616;BME280;801;47.982;7.810;2023-05-09T07:00:58;98652.00;;;17.99;100.00
1616;BME280;801;47.982;7.810;2023-05-09T07:03:25;98659.56;;;18.02;100.00
1616;BME280;801;47.982;7.810;2023-05-09T07:05:51;98650.16;;;17.86;100.00
1616;BME280;801;47.982;7.810;2023-05-09T07:08:19;98650.34;;;18.12;100.00
1616;BME280;801;47.982;7.810;2023-05-09T07:10:47;98639.91;;;18.05;100.00
1616;BME280;801;47.982;7.810;2023-05-09T07:13:13;98642.78;;;17.87;100.00
1616;BME280;801;47.982;7.810;2023-05-09T07:15:40;98644.03;;;18.03;100.00
1616;BME280;801;47.982;7.810;2023-05-09T07:18:06;98636.09;;;18.07;100.00
1616;BME280;801;47.982;7.810;2023-05-09T07:20:33;98636.81;;;17.98;100.00
1616;BME280;801;47.982;7.810;2023-05-09T07:22:59;98635.72;;;18.22;100.00
1616;BME280;801;47.982;7.810;2023-05-09T07:25:27;98625.13;;;18.43;100.00
1616;BME280;801;47.982;7.810;2023-05-09T07:27:55;98625.41;;;18.41;100.00
1616;BME280;801;47.982;7.810;2023-05-09T07:30:22;98620.25;;;18.31;100.00
1616;BME280;801;47.982;7.810;2023-05-09T07:32:49;98620.16;;;18.45;100.00
1616;BME280;801;47.982;7.810;2023-05-09T07:35:16;98616.94;;;18.43;100.00
1616;BME280;801;47.982;7.810;2023-05-09T07:37:42;98609.47;;;18.49;100.00
1616;BME280;801;47.982;7.810;2023-05-09T07:40:09;98605.28;;;18.42;100.00
1616;BME280;801;47.982;7.810;2023-05-09T07:42:36;98603.44;;;18.29;100.00
1616;BME280;801;47.982;7.810;2023-05-09T07:45:05;98601.63;;;18.47;100.00
1616;BME280;801;47.982;7.810;2023-05-09T07:47:32;98606.13;;;18.52;100.00
1616;BME280;801;47.982;7.810;2023-05-09T07:49:58;98601.78;;;18.51;100.00
1616;BME280;801;47.982;7.810;2023-05-09T07:52:25;98596.97;;;18.48;100.00
1616;BME280;801;47.982;7.810;2023-05-09T07:54:51;98593.16;;;18.49;100.00
1616;BME280;801;47.982;7.810;2023-05-09T07:57:18;98591.34;;;18.44;100.00
1616;BME280;801;47.982;7.810;2023-05-09T07:59:45;98589.56;;;18.39;100.00
1616;BME280;801;47.982;7.810;2023-05-09T08:02:13;98585.06;;;18.66;100.00
1616;BME280;801;47.982;7.810;2023-05-09T08:04:39;98580.91;;;18.68;100.00
1616;BME280;801;47.982;7.810;2023-05-09T08:07:06;98576.13;;;18.74;100.00
1616;BME280;801;47.982;7.810;2023-05-09T08:09:33;98573.19;;;18.62;100.00
1616;BME280;801;47.982;7.810;2023-05-09T08:11:59;98574.00;;;18.62;100.00
1616;BME280;801;47.982;7.810;2023-05-09T08:14:26;98567.63;;;18.67;100.00
1616;BME280;801;47.982;7.810;2023-05-09T08:16:52;98565.81;;;18.54;100.00
1616;BME280;801;47.982;7.810;2023-05-09T08:19:20;98558.88;;;18.48;100.00
1616;BME280;801;47.982;7.810;2023-05-09T08:21:48;98558.31;;;18.68;100.00
1616;BME280;801;47.982;7.810;2023-05-09T08:24:15;98554.22;;;18.79;100.00
1616;BME280;801;47.982;7.810;2023-05-09T08:26:41;98551.28;;;18.67;100.00
1616;BME280;801;47.982;7.810;2023-05-09T08:29:08;98546.13;;;18.97;100.00
1616;BME280;801;47.982;7.810;2023-05-09T08:31:34;98535.84;;;18.85;100.00
1616;BME280;801;47.982;7.810;2023-05-09T08:34:01;98540.75;;;18.74;100.00
1616;BME280;801;47.982;7.810;2023-05-09T08:36:29;98540.13;;;18.77;100.00
1616;BME280;801;47.982;7.810;2023-05-09T08:38:56;98535.00;;;18.76;100.00
1616;BME280;801;47.982;7.810;2023-05-09T08:41:24;98532.72;;;18.69;100.00
1616;BME280;801;47.982;7.810;2023-05-09T08:43:52;98528.88;;;18.70;100.00
1616;BME280;801;47.982;7.810;2023-05-09T08:46:22;98528.09;;;18.70;100.00
1616;BME280;801;47.982;7.810;2023-05-09T08:48:49;98523.66;;;18.82;100.00
1616;BME280;801;47.982;7.810;2023-05-09T08:51:16;98520.97;;;19.00;100.00
1616;BME280;801;47.982;7.810;2023-05-09T08:53:44;98518.13;;;19.05;100.00
1616;BME280;801;47.982;7.810;2023-05-09T08:56:11;98512.97;;;18.95;100.00
1616;BME280;801;47.982;7.810;2023-05-09T08:58:37;98515.53;;;19.00;100.00
1616;BME280;801;47.982;7.810;2023-05-09T09:01:05;98521.91;;;18.86;100.00
1616;BME280;801;47.982;7.810;2023-05-09T09:03:32;98500.00;;;19.18;100.00
1616;BME280;801;47.982;7.810;2023-05-09T09:05:58;98502.84;;;18.86;100.00
1616;BME280;801;47.982;7.810;2023-05-09T09:08:26;98496.00;;;19.15;100.00
1616;BME280;801;47.982;7.810;2023-05-09T09:10:54;98500.00;;;19.26;100.00
1616;BME280;801;47.982;7.810;2023-05-09T09:13:21;98492.50;;;19.41;100.00
1616;BME280;801;47.982;7.810;2023-05-09T09:15:49;98485.94;;;19.77;100.00
1616;BME280;801;47.982;7.810;2023-05-09T09:18:21;98492.47;;;19.76;100.00
1616;BME280;801;47.982;7.810;2023-05-09T09:20:51;98484.31;;;19.41;100.00
1616;BME280;801;47.982;7.810;2023-05-09T09:23:24;98484.97;;;19.29;100.00
1616;BME280;801;47.982;7.810;2023-05-09T09:25:57;98477.09;;;19.80;100.00
1616;BME280;801;47.982;7.810;2023-05-09T09:28:24;98486.00;;;20.06;100.00
1616;BME280;801;47.982;7.810;2023-05-09T09:30:51;98478.66;;;19.98;100.00
1616;BME280;801;47.982;7.810;2023-05-09T09:33:18;98467.69;;;20.16;100.00
1616;BME280;801;47.982;7.810;2023-05-09T09:35:47;98473.25;;;19.81;100.00
1616;BME280;801;47.982;7.810;2023-05-09T09:38:14;98474.53;;;19.57;100.00
1616;BME280;801;47.982;7.810;2023-05-09T09:40:51;98471.25;;;20.07;100.00
1616;BME280;801;47.982;7.810;2023-05-09T09:43:19;98459.69;;;20.10;100.00
1616;BME280;801;47.982;7.810;2023-05-09T09:45:48;98467.44;;;19.91;100.00
1616;BME280;801;47.982;7.810;2023-05-09T09:48:14;98455.06;;;20.02;100.00
1616;BME280;801;47.982;7.810;2023-05-09T09:50:41;98451.88;;;20.39;100.00
1616;BME280;801;47.982;7.810;2023-05-09T09:53:07;98450.50;;;20.53;100.00
1616;BME280;801;47.982;7.810;2023-05-09T09:55:34;98446.66;;;20.55;100.00
1616;BME280;801;47.982;7.810;2023-05-09T09:58:00;98433.97;;;20.59;100.00
1616;BME280;801;47.982;7.810;2023-05-09T10:00:28;98433.94;;;20.29;100.00
1616;BME280;801;47.982;7.810;2023-05-09T10:02:57;98423.53;;;20.61;100.00
1616;BME280;801;47.982;7.810;2023-05-09T10:05:26;98424.28;;;20.70;100.00
1616;BME280;801;47.982;7.810;2023-05-09T10:07:54;98422.34;;;20.70;100.00
1616;BME280;801;47.982;7.810;2023-05-09T10:10:22;98425.03;;;20.79;100.00
1616;BME280;801;47.982;7.810;2023-05-09T10:12:53;98415.09;;;20.75;100.00
1616;BME280;801;47.982;7.810;2023-05-09T10:15:21;98415.63;;;20.68;100.00
1616;BME280;801;47.982;7.810;2023-05-09T10:17:52;98415.50;;;20.56;100.00
1616;BME280;801;47.982;7.810;2023-05-09T10:20:19;98400.09;;;20.60;100.00
1616;BME280;801;47.982;7.810;2023-05-09T10:22:46;98396.09;;;20.78;100.00
1616;BME280;801;47.982;7.810;2023-05-09T10:25:16;98392.84;;;21.06;100.00
1616;BME280;801;47.982;7.810;2023-05-09T10:27:45;98383.41;;;20.52;100.00
1616;BME280;801;47.982;7.810;2023-05-09T10:30:15;98382.63;;;20.94;100.00
1616;BME280;801;47.982;7.810;2023-05-09T10:32:47;98383.06;;;20.84;100.00
1616;BME280;801;47.982;7.810;2023-05-09T10:35:16;98378.47;;;20.97;100.00
1616;BME280;801;47.982;7.810;2023-05-09T10:37:44;98374.44;;;20.94;100.00
1616;BME280;801;47.982;7.810;2023-05-09T10:40:11;98369.97;;;21.10;100.00
1616;BME280;801;47.982;7.810;2023-05-09T10:42:40;98367.38;;;21.47;100.00
1616;BME280;801;47.982;7.810;2023-05-09T10:45:08;98367.53;;;21.63;100.00
1616;BME280;801;47.982;7.810;2023-05-09T10:47:35;98359.59;;;21.70;100.00
1616;BME280;801;47.982;7.810;2023-05-09T10:50:04;98356.63;;;21.75;100.00
1616;BME280;801;47.982;7.810;2023-05-09T10:52:32;98351.81;;;21.60;100.00
1616;BME280;801;47.982;7.810;2023-05-09T10:55:00;98355.16;;;21.78;100.00
1616;BME280;801;47.982;7.810;2023-05-09T10:57:27;98356.44;;;21.14;100.00
1616;BME280;801;47.982;7.810;2023-05-09T10:59:54;98341.72;;;21.40;100.00
1616;BME280;801;47.982;7.810;2023-05-09T11:02:21;98329.25;;;21.51;100.00
1616;BME280;801;47.982;7.810;2023-05-09T11:05:11;98328.94;;;21.89;100.00
1616;BME280;801;47.982;7.810;2023-05-09T11:07:39;98325.88;;;21.66;100.00
1616;BME280;801;47.982;7.810;2023-05-09T11:10:08;98319.25;;;21.92;100.00
1616;BME280;801;47.982;7.810;2023-05-09T11:12:51;98314.94;;;21.79;100.00
1616;BME280;801;47.982;7.810;2023-05-09T11:15:18;98314.94;;;21.66;100.00
1616;BME280;801;47.982;7.810;2023-05-09T11:17:49;98305.13;;;21.90;100.00
1616;BME280;801;47.982;7.810;2023-05-09T11:20:16;98303.66;;;21.80;100.00
1616;BME280;801;47.982;7.810;2023-05-09T11:22:44;98305.59;;;21.92;100.00
1616;BME280;801;47.982;7.810;2023-05-09T11:25:13;98295.44;;;21.92;100.00
1616;BME280;801;47.982;7.810;2023-05-09T11:27:41;98288.03;;;21.81;100.00
1616;BME280;801;47.982;7.810;2023-05-09T11:30:10;98283.03;;;21.95;100.00
1616;BME280;801;47.982;7.810;2023-05-09T11:32:44;98281.75;;;22.05;100.00
1616;BME280;801;47.982;7.810;2023-05-09T11:35:12;98275.50;;;22.29;100.00
1616;BME280;801;47.982;7.810;2023-05-09T11:37:48;98268.97;;;22.21;100.00
1616;BME280;801;47.982;7.810;2023-05-09T11:40:18;98270.94;;;22.33;100.00
1616;BME280;801;47.982;7.810;2023-05-09T11:42:46;98253.63;;;22.04;100.00
1616;BME280;801;47.982;7.810;2023-05-09T11:45:14;98257.91;;;22.30;100.00
1616;BME280;801;47.982;7.810;2023-05-09T11:47:41;98248.25;;;21.95;100.00
1616;BME280;801;47.982;7.810;2023-05-09T11:50:09;98251.84;;;22.36;99.92
1616;BME280;801;47.982;7.810;2023-05-09T11:52:36;98248.78;;;22.38;97.54
1616;BME280;801;47.982;7.810;2023-05-09T11:55:06;98244.56;;;22.16;100.00
1616;BME280;801;47.982;7.810;2023-05-09T11:57:34;98235.47;;;22.24;98.42
1616;BME280;801;47.982;7.810;2023-05-09T12:00:01;98241.75;;;22.25;98.58
1616;BME280;801;47.982;7.810;2023-05-09T12:02:29;98233.22;;;22.02;98.61
1616;BME280;801;47.982;7.810;2023-05-09T12:04:55;98229.22;;;22.52;97.38
1616;BME280;801;47.982;7.810;2023-05-09T12:07:22;98225.69;;;22.51;97.43
1616;BME280;801;47.982;7.810;2023-05-09T12:09:48;98229.16;;;22.36;96.74
1616;BME280;801;47.982;7.810;2023-05-09T12:12:16;98224.34;;;22.45;95.20
1616;BME280;801;47.982;7.810;2023-05-09T12:14:47;98220.44;;;22.74;93.45
1616;BME280;801;47.982;7.810;2023-05-09T12:17:13;98223.78;;;22.68;94.04
1616;BME280;801;47.982;7.810;2023-05-09T12:19:40;98208.56;;;22.98;95.15
1616;BME280;801;47.982;7.810;2023-05-09T12:22:06;98208.38;;;22.75;94.71
1616;BME280;801;47.982;7.810;2023-05-09T12:24:34;98205.25;;;22.33;94.43
1616;BME280;801;47.982;7.810;2023-05-09T12:27:02;98203.78;;;22.51;92.44
1616;BME280;801;47.982;7.810;2023-05-09T12:29:30;98201.19;;;22.71;91.90
1616;BME280;801;47.982;7.810;2023-05-09T12:31:57;98191.25;;;22.94;91.67
1616;BME280;801;47.982;7.810;2023-05-09T12:34:24;98189.16;;;23.04;92.17
1616;BME280;801;47.982;7.810;2023-05-09T12:36:50;98184.22;;;22.65;90.49
1616;BME280;801;47.982;7.810;2023-05-09T12:39:18;98183.78;;;23.07;90.14
1616;BME280;801;47.982;7.810;2023-05-09T12:41:47;98174.16;;;23.13;89.75
1616;BME280;801;47.982;7.810;2023-05-09T12:44:18;98164.91;;;22.90;89.24
1616;BME280;801;47.982;7.810;2023-05-09T12:46:55;98166.59;;;22.50;90.57
1616;BME280;801;47.982;7.810;2023-05-09T12:49:22;98155.56;;;23.38;88.20
1616;BME280;801;47.982;7.810;2023-05-09T12:51:50;98156.09;;;23.28;87.53
1616;BME280;801;47.982;7.810;2023-05-09T12:54:21;98160.31;;;23.41;85.08
1616;BME280;801;47.982;7.810;2023-05-09T12:56:48;98154.94;;;23.45;90.54
1616;BME280;801;47.982;7.810;2023-05-09T12:59:19;98161.44;;;23.56;86.65
1616;BME280;801;47.982;7.810;2023-05-09T13:01:50;98150.59;;;23.28;88.50
1616;BME280;801;47.982;7.810;2023-05-09T13:04:20;98159.28;;;23.30;88.73
1616;BME280;801;47.982;7.810;2023-05-09T13:06:48;98154.50;;;22.95;88.63
1616;BME280;801;47.982;7.810;2023-05-09T13:09:16;98150.59;;;22.96;89.28
1616;BME280;801;47.982;7.810;2023-05-09T13:11:43;98152.59;;;22.84;90.85
1616;BME280;801;47.982;7.810;2023-05-09T13:14:10;98136.59;;;22.70;91.28
1616;BME280;801;47.982;7.810;2023-05-09T13:16:37;98137.03;;;22.56;89.92
1616;BME280;801;47.982;7.810;2023-05-09T13:19:04;98132.72;;;22.71;91.77
1616;BME280;801;47.982;7.810;2023-05-09T13:21:32;98135.66;;;22.34;92.23
1616;BME280;801;47.982;7.810;2023-05-09T13:23:59;98122.38;;;22.48;92.19
1616;BME280;801;47.982;7.810;2023-05-09T13:26:25;98122.56;;;22.55;92.90
1616;BME280;801;47.982;7.810;2023-05-09T13:28:52;98115.38;;;22.35;92.88